Time;durP1;ratioP1;P1;durP2;ratioP2;P2;SDS_P1;SDS_P2;PMS_P1;PMS_P2;Temp;Humidity;BMP_temperature;BMP_pressure;BME280_temperature;BME280_humidity;BME280_pressure;Samples;Min_cycle;Max_cycle;Signal;HPM_P1;HPM_P2
2023/07/31 00:00:55;;;;;;;3.58;1.13;;;;;;;15.93;64.84;96792.22;4934613;29;20052;-68
2023/07/31 00:03:23;;;;;;;4.28;1.65;;;;;;;15.93;64.93;96786.16;4914823;29;20052;-69
2023/07/31 00:05:52;;;;;;;6.15;1.75;;;;;;;15.91;64.82;96796.88;4914177;29;20048;-69
2023/07/31 00:08:19;;;;;;;5.03;1.60;;;;;;;15.91;64.93;96781.09;4915846;29;20097;-69
2023/07/31 00:10:47;;;;;;;2.50;1.35;;;;;;;15.92;64.65;96790.63;4915858;29;20060;-68
2023/07/31 00:13:15;;;;;;;2.33;1.30;;;;;;;15.91;65.78;96781.09;4917512;29;20469;-68
2023/07/31 00:15:42;;;;;;;4.25;1.33;;;;;;;15.89;65.05;96777.84;4919842;29;20055;-68
2023/07/31 00:18:10;;;;;;;3.35;1.25;;;;;;;15.89;64.87;96777.06;4919830;29;20051;-69
2023/07/31 00:20:37;;;;;;;3.60;1.50;;;;;;;15.85;64.66;96782.75;4917795;29;20055;-69
2023/07/31 00:23:06;;;;;;;2.97;1.60;;;;;;;15.84;64.85;96775.06;4918907;29;20401;-68
2023/07/31 00:25:34;;;;;;;2.97;1.55;;;;;;;15.81;64.83;96775.50;4931538;29;20116;-69
2023/07/31 00:28:01;;;;;;;2.25;1.50;;;;;;;15.80;64.71;96774.66;4929913;29;20111;-69
2023/07/31 00:30:29;;;;;;;3.30;1.30;;;;;;;15.77;64.85;96775.09;4918961;29;20058;-69
2023/07/31 00:32:57;;;;;;;4.88;1.20;;;;;;;15.75;64.69;96774.50;4917799;29;20056;-69
2023/07/31 00:35:24;;;;;;;3.53;1.67;;;;;;;15.73;64.64;96767.84;4919453;29;20060;-68
2023/07/31 00:37:52;;;;;;;2.88;1.45;;;;;;;15.71;64.62;96767.22;4932508;29;20048;-69
2023/07/31 00:40:21;;;;;;;4.32;1.45;;;;;;;15.66;64.63;96768.66;4919581;29;20060;-69
2023/07/31 00:42:49;;;;;;;4.90;1.73;;;;;;;15.61;64.94;96765.84;4919287;29;20055;-69
2023/07/31 00:45:16;;;;;;;6.13;1.63;;;;;;;15.55;64.68;96764.03;4919613;29;20125;-69
2023/07/31 00:47:44;;;;;;;3.88;1.52;;;;;;;15.52;64.97;96761.81;4919182;29;20113;-69
2023/07/31 00:50:12;;;;;;;7.00;2.00;;;;;;;15.52;64.71;96761.03;4919346;29;20084;-69
2023/07/31 00:52:39;;;;;;;5.53;1.25;;;;;;;15.52;64.72;96756.56;4918969;29;20113;-69
2023/07/31 00:55:07;;;;;;;4.28;1.38;;;;;;;15.50;64.89;96763.03;4918767;29;20060;-68
2023/07/31 00:57:38;;;;;;;2.10;1.30;;;;;;;15.47;64.93;96764.28;4918665;29;20520;-69
2023/07/31 01:00:07;;;;;;;4.90;1.10;;;;;;;15.46;65.09;96762.69;4918658;29;20508;-69
2023/07/31 01:02:36;;;;;;;2.92;1.50;;;;;;;15.46;65.22;96762.69;4919146;29;20138;-69
2023/07/31 01:05:04;;;;;;;4.15;1.40;;;;;;;15.45;64.81;96761.03;4918037;29;20048;-69
2023/07/31 01:07:41;;;;;;;4.07;1.10;;;;;;;15.43;65.21;96763.06;4918482;29;20048;-69
2023/07/31 01:10:15;;;;;;;3.78;1.55;;;;;;;15.40;65.01;96766.13;4918886;29;20058;-68
2023/07/31 01:12:46;;;;;;;2.03;0.88;;;;;;;15.38;65.58;96768.16;4916441;29;20055;-69
2023/07/31 01:15:14;;;;;;;3.20;1.25;;;;;;;15.42;65.47;96767.53;4916660;29;20508;-68
2023/07/31 01:17:43;;;;;;;3.58;1.48;;;;;;;15.43;65.05;96763.06;4916550;29;20564;-69
2023/07/31 01:20:14;;;;;;;2.35;1.20;;;;;;;15.39;65.22;96757.44;4916546;29;20523;-69
2023/07/31 01:23:07;;;;;;;3.58;1.38;;;;;;;15.37;65.25;96748.97;4916652;29;20218;-69
2023/07/31 01:25:59;;;;;;;3.05;1.35;;;;;;;15.35;65.15;96751.00;4916383;29;20498;-69
2023/07/31 01:28:34;;;;;;;3.47;1.60;;;;;;;15.30;65.34;96748.16;4915550;29;20719;-68
2023/07/31 01:31:06;;;;;;;4.22;1.50;;;;;;;15.29;65.53;96757.06;4918082;29;20056;-68
2023/07/31 01:33:34;;;;;;;;;;;;;;;15.28;65.53;96752.00;4918838;29;20055;-67
2023/07/31 01:36:02;;;;;;;2.83;1.25;;;;;;;15.27;66.36;96751.22;4918265;29;19927;-68
2023/07/31 01:38:30;;;;;;;4.72;1.33;;;;;;;15.22;65.87;96745.78;4917075;29;20052;-68
2023/07/31 01:40:58;;;;;;;4.93;1.30;;;;;;;15.17;65.94;96743.75;4911352;29;20055;-67
2023/07/31 01:43:26;;;;;;;2.63;1.25;;;;;;;15.14;65.88;96733.66;4936728;29;20056;-68
2023/07/31 01:45:54;;;;;;;6.20;1.90;;;;;;;15.12;65.80;96738.31;4936315;29;20056;-68
2023/07/31 01:48:22;;;;;;;2.40;0.98;;;;;;;15.10;66.14;96721.94;4936324;29;20108;-68
2023/07/31 01:50:49;;;;;;;3.25;1.63;;;;;;;15.11;65.97;96726.22;4935860;29;20189;-67
2023/07/31 01:53:17;;;;;;;4.22;1.38;;;;;;;15.11;66.13;96728.84;4936096;29;20106;-68
2023/07/31 01:55:45;;;;;;;4.43;1.45;;;;;;;15.09;66.16;96716.94;4936128;29;20508;-68
2023/07/31 01:58:14;;;;;;;2.75;1.60;;;;;;;15.03;66.47;96721.19;4936480;29;20052;-68
2023/07/31 02:00:41;;;;;;;3.97;1.38;;;;;;;15.02;66.50;96720.38;4930953;29;20547;-68
2023/07/31 02:03:09;;;;;;;4.38;1.38;;;;;;;14.99;66.51;96722.59;4922323;29;20111;-68
2023/07/31 02:05:37;;;;;;;6.28;1.55;;;;;;;14.96;66.86;96723.03;4933738;29;20048;-68
2023/07/31 02:08:04;;;;;;;3.78;1.45;;;;;;;14.93;66.82;96718.16;4904149;29;20080;-68
2023/07/31 02:10:33;;;;;;;3.13;1.55;;;;;;;14.92;67.20;96713.94;4898003;29;20467;-68
2023/07/31 02:13:01;;;;;;;8.70;1.33;;;;;;;14.92;67.00;96711.31;4896608;29;20481;-68
2023/07/31 02:15:29;;;;;;;4.65;1.70;;;;;;;14.88;67.11;96707.47;4896632;29;20091;-68
2023/07/31 02:17:57;;;;;;;4.20;1.30;;;;;;;14.83;67.03;96703.66;4896777;29;20109;-68
2023/07/31 02:20:25;;;;;;;3.72;1.73;;;;;;;14.83;67.57;96700.22;4896675;29;20048;-68
2023/07/31 02:22:53;;;;;;;6.15;1.80;;;;;;;14.80;67.40;96695.38;4896433;29;20113;-69
2023/07/31 02:25:20;;;;;;;3.28;1.70;;;;;;;14.78;67.85;96706.09;4900202;29;20088;-69
2023/07/31 02:27:48;;;;;;;2.25;1.10;;;;;;;14.78;67.65;96692.97;4904492;29;20056;-68
2023/07/31 02:30:15;;;;;;;4.43;1.50;;;;;;;14.76;67.53;96694.97;4898339;29;20110;-69
2023/07/31 02:32:44;;;;;;;3.65;1.35;;;;;;;14.76;67.60;96707.31;4897974;29;20110;-68
2023/07/31 02:35:15;;;;;;;2.28;1.30;;;;;;;14.75;67.36;96693.34;4910096;29;20056;-68
2023/07/31 02:37:42;;;;;;;3.05;1.63;;;;;;;14.74;67.68;96702.25;4934893;29;20056;-68
2023/07/31 02:40:11;;;;;;;6.47;1.60;;;;;;;14.74;67.67;96699.63;4921366;29;20088;-68
2023/07/31 02:42:38;;;;;;;3.33;1.58;;;;;;;14.72;67.55;96699.03;4915899;29;20052;-68
2023/07/31 02:45:07;;;;;;;3.20;1.92;;;;;;;14.70;67.86;96701.06;4916601;29;20044;-70
2023/07/31 02:47:35;;;;;;;3.28;1.25;;;;;;;14.68;67.75;96689.94;4916373;29;20091;-69
2023/07/31 02:50:05;;;;;;;5.82;1.65;;;;;;;14.66;68.17;96696.41;4915940;29;20052;-69
2023/07/31 02:52:33;;;;;;;5.75;1.60;;;;;;;14.60;68.15;96690.97;4916533;29;20501;-68
2023/07/31 02:55:00;;;;;;;10.75;1.77;;;;;;;14.60;68.07;96690.16;4915949;29;20508;-67
2023/07/31 02:57:28;;;;;;;4.57;1.35;;;;;;;14.59;68.14;96691.19;4916916;29;20067;-68
2023/07/31 02:59:55;;;;;;;2.67;1.35;;;;;;;14.56;68.58;96694.19;4930300;29;20044;-67
2023/07/31 03:02:23;;;;;;;3.10;1.30;;;;;;;14.54;68.96;96688.31;4918657;29;20056;-68
2023/07/31 03:04:51;;;;;;;3.63;1.30;;;;;;;14.54;68.61;96688.31;4925526;29;20075;-68
2023/07/31 03:07:20;;;;;;;3.60;1.70;;;;;;;14.55;68.59;96682.09;4916492;29;20417;-68
2023/07/31 03:09:47;;;;;;;4.93;1.60;;;;;;;14.53;68.37;96679.63;4916162;29;20469;-68
2023/07/31 03:12:15;;;;;;;3.20;1.70;;;;;;;14.52;68.67;96687.72;4916035;29;20056;-68
2023/07/31 03:14:43;;;;;;;4.63;1.75;;;;;;;14.50;68.81;96684.50;4916144;29;20469;-68
2023/07/31 03:17:10;;;;;;;5.43;1.55;;;;;;;14.49;68.68;96678.44;4916510;29;20079;-68
2023/07/31 03:19:38;;;;;;;4.18;2.00;;;;;;;14.49;68.98;96675.81;4918159;29;20051;-67
2023/07/31 03:22:06;;;;;;;2.95;1.73;;;;;;;14.49;68.76;96673.19;4932957;29;20052;-68
2023/07/31 03:24:35;;;;;;;5.93;1.85;;;;;;;14.48;68.87;96670.78;4929895;29;20073;-68
2023/07/31 03:27:03;;;;;;;4.57;1.52;;;;;;;14.47;68.88;96663.91;4919896;29;20063;-67
2023/07/31 03:29:30;;;;;;;1.63;1.08;;;;;;;14.44;68.82;96659.88;4921086;29;20083;-68
2023/07/31 03:31:59;;;;;;;2.58;1.70;;;;;;;14.39;68.81;96663.13;4929487;29;20060;-68
2023/07/31 03:34:26;;;;;;;3.03;1.33;;;;;;;14.37;69.13;96665.13;4915543;29;20457;-68
2023/07/31 03:36:54;;;;;;;2.45;1.55;;;;;;;14.38;68.95;96661.47;4916227;29;20052;-68
2023/07/31 03:39:21;;;;;;;4.35;1.92;;;;;;;14.37;69.08;96659.88;4916017;29;20813;-68
2023/07/31 03:41:50;;;;;;;6.38;2.35;;;;;;;14.34;69.07;96668.19;4915035;29;20060;-68
2023/07/31 03:44:18;;;;;;;3.50;1.73;;;;;;;14.33;69.10;96658.69;4913630;29;20519;-68
2023/07/31 03:46:45;;;;;;;3.15;1.95;;;;;;;14.32;69.00;96664.94;4911271;29;20047;-67
2023/07/31 03:49:13;;;;;;;5.30;1.63;;;;;;;14.31;69.20;96671.19;4930554;29;20134;-68
2023/07/31 03:51:41;;;;;;;3.45;1.95;;;;;;;14.33;69.43;96665.75;4927634;29;20060;-68
2023/07/31 03:54:09;;;;;;;3.00;1.35;;;;;;;14.37;69.42;96656.47;4908620;29;20060;-67
2023/07/31 03:56:38;;;;;;;3.22;1.40;;;;;;;14.41;69.31;96661.09;4927439;29;20053;-68
2023/07/31 03:59:07;;;;;;;2.72;1.80;;;;;;;14.42;69.02;96667.16;4925385;29;20052;-68
2023/07/31 04:01:35;;;;;;;3.88;1.60;;;;;;;14.41;69.38;96666.34;4934409;29;20043;-68
2023/07/31 04:04:02;;;;;;;3.10;1.48;;;;;;;14.45;69.22;96676.41;4936184;29;20055;-68
2023/07/31 04:06:30;;;;;;;3.60;1.48;;;;;;;14.47;69.29;96674.41;4923068;29;20109;-68
2023/07/31 04:08:58;;;;;;;4.55;1.77;;;;;;;14.49;69.45;96675.00;4918911;29;20056;-68
2023/07/31 04:11:25;;;;;;;5.38;1.70;;;;;;;14.52;69.29;96682.47;4904766;29;20140;-68
2023/07/31 04:13:53;;;;;;;5.95;1.75;;;;;;;14.55;69.17;96693.41;4900828;29;20139;-68
2023/07/31 04:16:22;;;;;;;1.80;1.50;;;;;;;14.56;69.43;96687.16;4907461;29;20052;-68
2023/07/31 04:18:50;;;;;;;2.88;1.73;;;;;;;14.60;71.07;96684.91;4912396;29;20111;-68
2023/07/31 04:21:17;;;;;;;3.70;1.60;;;;;;;14.61;69.59;96686.53;4912026;29;20063;-70
2023/07/31 04:23:45;;;;;;;4.10;1.40;;;;;;;14.63;69.44;96689.75;4915108;29;20052;-70
2023/07/31 04:26:12;;;;;;;4.53;1.40;;;;;;;14.65;69.35;96677.25;4915222;29;20048;-71
2023/07/31 04:28:40;;;;;;;3.20;1.20;;;;;;;14.64;69.26;96675.63;4901893;29;20100;-70
2023/07/31 04:31:08;;;;;;;3.60;1.63;;;;;;;14.61;69.18;96666.34;4909995;29;20048;-67
2023/07/31 04:33:37;;;;;;;3.35;1.35;;;;;;;14.63;69.50;96674.00;4911778;29;20059;-68
2023/07/31 04:36:05;;;;;;;4.53;1.60;;;;;;;14.65;69.08;96666.75;4919472;23;20048;-73
2023/07/31 04:38:33;;;;;;;2.83;1.63;;;;;;;14.65;69.01;96666.75;4915700;29;20083;-72
2023/07/31 04:41:01;;;;;;;4.85;2.05;;;;;;;14.66;69.11;96673.59;4922369;29;20056;-74
2023/07/31 04:43:28;;;;;;;3.38;1.33;;;;;;;14.68;69.13;96670.78;4915916;29;20056;-73
2023/07/31 04:45:56;;;;;;;3.53;1.60;;;;;;;14.68;69.15;96661.06;4912396;29;20052;-73
2023/07/31 04:48:23;;;;;;;2.40;1.42;;;;;;;14.71;69.38;96667.72;4897111;29;20441;-73
2023/07/31 04:50:52;;;;;;;4.45;1.60;;;;;;;14.73;69.54;96656.00;4897178;29;20494;-73
2023/07/31 04:53:20;;;;;;;5.68;1.67;;;;;;;14.77;69.26;96653.78;4900182;29;20080;-73
2023/07/31 04:55:47;;;;;;;2.85;1.50;;;;;;;14.81;69.56;96658.41;4912208;29;20067;-72
2023/07/31 04:58:14;;;;;;;4.75;1.85;;;;;;;14.89;70.16;96656.56;4907055;29;20465;-73
2023/07/31 05:00:42;;;;;;;2.72;2.10;;;;;;;14.95;69.86;96660.97;4915490;29;20097;-72
2023/07/31 05:03:10;;;;;;;3.83;1.90;;;;;;;15.00;69.49;96661.97;4900579;29;20108;-73
2023/07/31 05:05:38;;;;;;;3.28;1.60;;;;;;;15.02;69.13;96656.50;4917794;29;20059;-73
2023/07/31 05:08:07;;;;;;;5.47;1.73;;;;;;;15.03;69.37;96660.75;4910087;29;20125;-73
2023/07/31 05:10:35;;;;;;;5.65;1.85;;;;;;;15.07;69.46;96659.31;4917615;29;20048;-74
2023/07/31 05:13:02;;;;;;;5.20;1.70;;;;;;;15.11;69.72;96655.28;4906417;29;20055;-73
2023/07/31 05:15:30;;;;;;;4.95;2.20;;;;;;;15.15;70.94;96666.97;4922949;29;20052;-72
2023/07/31 05:17:58;;;;;;;4.05;1.83;;;;;;;15.22;70.16;96670.38;4940491;29;20056;-72
2023/07/31 05:20:25;;;;;;;3.53;1.83;;;;;;;15.26;69.76;96668.13;4910275;29;20052;-73
2023/07/31 05:22:53;;;;;;;3.70;2.08;;;;;;;15.28;69.15;96666.09;4915006;29;20443;-73
2023/07/31 05:25:22;;;;;;;5.18;2.20;;;;;;;15.30;70.26;96673.78;4918687;29;20064;-71
2023/07/31 05:27:49;;;;;;;2.42;1.45;;;;;;;15.33;69.08;96668.13;4901041;29;20053;-72
2023/07/31 05:30:17;;;;;;;3.30;1.60;;;;;;;15.33;68.52;96662.84;4902774;29;20564;-74
2023/07/31 05:32:45;;;;;;;4.55;1.80;;;;;;;15.33;68.81;96665.47;4897811;29;20573;-73
2023/07/31 05:35:12;;;;;;;4.40;2.20;;;;;;;15.36;69.36;96667.69;4907020;29;20051;-72
2023/07/31 05:37:40;;;;;;;6.53;2.38;;;;;;;15.37;68.75;96661.41;4898279;29;20136;-73
2023/07/31 05:40:08;;;;;;;4.32;2.53;;;;;;;15.36;68.48;96652.72;4919160;29;20112;-72
2023/07/31 05:42:38;;;;;;;4.32;1.83;;;;;;;15.38;68.41;96657.78;4923356;29;20052;-73
2023/07/31 05:45:07;;;;;;;4.50;2.17;;;;;;;15.43;68.88;96664.00;4928314;29;20060;-73
2023/07/31 05:47:35;;;;;;;4.70;1.90;;;;;;;15.49;69.12;96654.47;4936398;29;20614;-72
2023/07/31 05:50:02;;;;;;;4.18;2.10;;;;;;;15.54;69.50;96659.88;4904314;29;20080;-72
2023/07/31 05:52:30;;;;;;;3.08;2.30;;;;;;;15.58;68.38;96655.81;4890785;29;20053;-72
2023/07/31 05:54:58;;;;;;;6.13;2.60;;;;;;;15.61;67.98;96650.16;4917087;29;20104;-72
2023/07/31 05:57:25;;;;;;;5.00;2.22;;;;;;;15.66;68.45;96657.41;4919518;29;20147;-72
2023/07/31 05:59:54;;;;;;;6.05;2.85;;;;;;;15.72;68.13;96648.69;4910326;29;20052;-70
2023/07/31 06:02:22;;;;;;;4.32;2.55;;;;;;;15.83;70.60;96660.34;4916775;29;20501;-74
2023/07/31 06:04:49;;;;;;;5.43;2.58;;;;;;;15.93;70.83;96663.31;4908383;29;20052;-74
2023/07/31 06:07:17;;;;;;;5.35;2.90;;;;;;;16.04;69.73;96659.19;4899011;29;20048;-74
2023/07/31 06:09:45;;;;;;;4.65;2.97;;;;;;;16.14;69.42;96658.72;4898673;29;20052;-74
2023/07/31 06:12:12;;;;;;;4.82;2.78;;;;;;;16.20;69.45;96652.56;4892864;29;20052;-74
2023/07/31 06:14:40;;;;;;;3.60;2.20;;;;;;;16.22;67.69;96650.53;4917150;29;20131;-74
2023/07/31 06:17:09;;;;;;;6.25;2.38;;;;;;;16.23;67.06;96652.16;4902053;29;20104;-74
2023/07/31 06:19:36;;;;;;;9.52;2.67;;;;;;;16.24;66.71;96648.47;4901030;29;20052;-74
2023/07/31 06:22:04;;;;;;;4.95;2.80;;;;;;;16.23;66.95;96645.03;4898628;29;20235;-74
2023/07/31 06:24:32;;;;;;;4.40;2.60;;;;;;;16.25;66.61;96636.94;4900688;29;20505;-74
2023/07/31 06:26:59;;;;;;;5.90;2.80;;;;;;;16.27;66.43;96633.06;4905528;29;20127;-75
2023/07/31 06:29:27;;;;;;;5.28;2.50;;;;;;;16.31;66.17;96633.44;4908603;29;20133;-74
2023/07/31 06:31:55;;;;;;;5.40;2.80;;;;;;;16.36;65.89;96638.06;4901773;29;20053;-72
2023/07/31 06:34:24;;;;;;;3.22;2.10;;;;;;;16.43;66.14;96638.78;4902148;29;20112;-71
2023/07/31 06:36:51;;;;;;;5.65;2.60;;;;;;;16.53;65.79;96635.66;4899712;29;20585;-70
2023/07/31 06:39:19;;;;;;;3.85;2.45;;;;;;;16.58;66.71;96633.97;4905755;29;20667;-71
2023/07/31 06:41:46;;;;;;;6.30;2.92;;;;;;;16.64;65.67;96632.31;4917139;29;20055;-71
2023/07/31 06:44:14;;;;;;;4.20;2.88;;;;;;;16.69;65.40;96640.34;4915998;29;20052;-71
2023/07/31 06:46:42;;;;;;;5.43;2.88;;;;;;;16.75;64.58;96639.47;4905858;29;20112;-71
2023/07/31 06:49:09;;;;;;;5.40;2.65;;;;;;;16.82;64.67;96640.22;4918764;29;20087;-71
2023/07/31 06:51:38;;;;;;;5.60;2.70;;;;;;;16.87;63.80;96645.63;4915613;29;20044;-74
2023/07/31 06:54:06;;;;;;;3.42;2.88;;;;;;;16.95;66.20;96649.81;4899868;29;20065;-71
2023/07/31 06:56:33;;;;;;;6.47;2.85;;;;;;;17.02;64.62;96644.47;4900294;29;20802;-72
2023/07/31 06:59:01;;;;;;;4.40;2.83;;;;;;;17.10;67.79;96657.34;4918241;29;20132;-71
2023/07/31 07:01:29;;;;;;;4.50;2.70;;;;;;;17.22;67.96;96645.00;4912395;29;20056;-71
2023/07/31 07:03:56;;;;;;;4.32;2.90;;;;;;;17.38;70.16;96646.25;4907820;29;20059;-71
2023/07/31 07:06:24;;;;;;;2.60;2.38;;;;;;;17.56;71.46;96649.84;4917751;29;20060;-71
2023/07/31 07:08:53;;;;;;;4.65;2.25;;;;;;;17.68;69.42;96654.13;4908371;29;20064;-71
2023/07/31 07:11:22;;;;;;;3.15;1.90;;;;;;;17.78;67.48;96653.59;4898300;29;20049;-71
2023/07/31 07:13:49;;;;;;;3.95;1.75;;;;;;;17.87;65.31;96651.47;4898845;29;20063;-71
2023/07/31 07:16:17;;;;;;;3.30;1.80;;;;;;;17.96;64.65;96646.66;4908399;29;20453;-71
2023/07/31 07:18:45;;;;;;;2.50;1.27;;;;;;;18.03;64.81;96644.69;4905600;29;20061;-71
2023/07/31 07:21:30;;;;;;;3.15;1.98;;;;;;;18.11;66.64;96645.16;4900618;29;20433;-70
2023/07/31 07:23:59;;;;;;;4.40;1.70;;;;;;;18.16;64.89;96654.25;4911714;29;20543;-70
2023/07/31 07:26:26;;;;;;;2.60;1.65;;;;;;;18.19;63.63;96644.03;4915424;29;20579;-71
2023/07/31 07:28:54;;;;;;;3.05;1.60;;;;;;;18.24;62.79;96640.72;4914796;29;20564;-71
2023/07/31 07:31:22;;;;;;;2.10;1.50;;;;;;;18.29;64.47;96630.25;4910845;29;20059;-71
2023/07/31 07:33:49;;;;;;;2.55;1.45;;;;;;;18.35;63.48;96634.63;4904412;29;20088;-71
2023/07/31 07:36:17;;;;;;;1.40;1.30;;;;;;;18.40;64.95;96629.44;4902632;29;20108;-71
2023/07/31 07:38:44;;;;;;;3.45;1.60;;;;;;;18.46;63.83;96638.31;4917035;29;20104;-70
2023/07/31 07:41:13;;;;;;;4.47;1.77;;;;;;;18.49;64.74;96635.97;4901872;29;20082;-73
2023/07/31 07:43:41;;;;;;;3.08;1.65;;;;;;;18.49;61.62;96633.34;4882455;29;20045;-74
2023/07/31 07:46:08;;;;;;;6.63;1.63;;;;;;;18.49;61.77;96633.34;4898947;29;20098;-74
2023/07/31 07:48:36;;;;;;;1.92;1.52;;;;;;;18.52;61.11;96643.47;4899349;29;20068;-74
2023/07/31 07:51:04;;;;;;;7.75;2.13;;;;;;;18.54;60.86;96645.84;4898319;29;20110;-74
2023/07/31 07:53:31;;;;;;;5.13;1.40;;;;;;;18.57;60.02;96634.03;4897256;29;20048;-74
2023/07/31 07:55:59;;;;;;;3.72;1.60;;;;;;;18.60;60.09;96633.56;4898086;29;20056;-74
2023/07/31 07:58:28;;;;;;;2.60;1.40;;;;;;;18.68;60.82;96635.88;4909805;29;20104;-74
2023/07/31 08:00:55;;;;;;;4.65;1.92;;;;;;;18.77;60.88;96631.81;4910647;29;20513;-74
2023/07/31 08:03:23;;;;;;;3.97;1.65;;;;;;;18.86;59.88;96627.81;4898025;29;20052;-74
2023/07/31 08:05:51;;;;;;;4.13;1.63;;;;;;;18.91;58.32;96630.56;4916511;29;20112;-74
2023/07/31 08:08:19;;;;;;;4.65;1.25;;;;;;;18.98;60.07;96630.44;4914683;29;20063;-73
2023/07/31 08:10:47;;;;;;;3.72;1.63;;;;;;;19.06;59.07;96637.19;4913392;29;20063;-71
2023/07/31 08:13:14;;;;;;;4.38;1.75;;;;;;;19.14;57.73;96642.09;4912557;29;20041;-74
2023/07/31 08:15:44;;;;;;;7.07;1.70;;;;;;;19.21;56.14;96637.47;4902052;29;20052;-74
2023/07/31 08:18:12;;;;;;;2.67;1.50;;;;;;;19.26;57.77;96632.28;4916012;29;20122;-74
2023/07/31 08:20:40;;;;;;;2.85;1.25;;;;;;;19.33;58.87;96632.94;4914004;29;20048;-74
2023/07/31 08:23:08;;;;;;;3.05;1.52;;;;;;;19.42;58.31;96630.72;4915753;29;20087;-74
2023/07/31 08:25:36;;;;;;;4.75;1.50;;;;;;;19.51;56.32;96620.56;4914828;29;20052;-71
2023/07/31 08:28:03;;;;;;;4.57;1.92;;;;;;;19.61;56.56;96623.38;4909685;29;20100;-71
2023/07/31 08:30:33;;;;;;;2.88;1.67;;;;;;;19.74;56.97;96620.47;4901057;29;20523;-74
2023/07/31 08:33:02;;;;;;;3.15;1.85;;;;;;;19.84;57.52;96611.09;4902163;29;20045;-74
2023/07/31 08:35:30;;;;;;;4.13;1.67;;;;;;;19.94;58.40;96606.75;4886402;29;20054;-74
2023/07/31 10:41:16;;;;;;;5.28;1.73;;;;;;;22.63;49.54;96499.28;4956798;29;20055;-80
2023/07/31 10:43:49;;;;;;;6.05;2.47;;;;;;;22.65;49.20;96499.00;4938847;23;20052;-78
2023/07/31 10:46:18;;;;;;;2.67;1.60;;;;;;;22.68;48.48;96493.16;4921593;29;20061;-79
2023/07/31 10:48:45;;;;;;;3.28;1.77;;;;;;;22.81;46.69;96481.22;4922129;29;20080;-82
2023/07/31 10:51:13;;;;;;;3.60;1.75;;;;;;;22.93;45.66;96467.69;4920983;29;20059;-79
2023/07/31 10:53:41;;;;;;;4.50;1.70;;;;;;;23.00;47.55;96463.75;4922714;29;20048;-78
2023/07/31 10:56:12;;;;;;;2.80;1.73;;;;;;;23.00;45.81;96463.75;4922097;29;20048;-79
2023/07/31 10:58:40;;;;;;;4.35;1.88;;;;;;;23.05;45.52;96457.63;4923221;29;20056;-79
2023/07/31 11:01:08;;;;;;;6.43;1.50;;;;;;;23.12;46.78;96471.47;4923432;29;20052;-80
2023/07/31 11:03:45;;;;;;;3.80;1.77;;;;;;;23.12;47.90;96466.13;4923226;29;20048;-79
2023/07/31 11:06:13;;;;;;;5.13;2.45;;;;;;;23.20;47.74;96467.50;4922506;29;20588;-81
2023/07/31 11:08:46;;;;;;;2.55;1.55;;;;;;;23.30;45.74;96462.16;4922252;29;20063;-79
2023/07/31 11:11:16;;;;;;;5.15;1.92;;;;;;;23.41;45.41;96463.75;4922465;29;20052;-78
2023/07/31 11:13:46;;;;;;;2.05;1.60;;;;;;;23.46;47.57;96470.91;4922449;29;20055;-78
2023/07/31 11:16:14;;;;;;;2.60;1.58;;;;;;;23.49;47.22;96472.28;4923010;29;20538;-79
2023/07/31 11:18:45;;;;;;;2.38;1.77;;;;;;;23.51;46.41;96464.81;4922939;29;20461;-78
2023/07/31 11:21:13;;;;;;;4.72;1.80;;;;;;;23.49;45.92;96465.09;4923564;29;20056;-80
2023/07/31 11:23:41;;;;;;;5.45;1.73;;;;;;;23.46;46.19;96478.91;4923082;29;20052;-77
2023/07/31 11:26:09;;;;;;;4.22;1.55;;;;;;;23.44;44.30;96470.41;4922243;29;20115;-78
2023/07/31 11:28:38;;;;;;;4.97;1.63;;;;;;;23.43;47.71;96466.94;4921952;29;20080;-79
2023/07/31 11:31:09;;;;;;;5.53;1.88;;;;;;;23.49;47.94;96470.41;4922160;29;20500;-80
2023/07/31 11:33:37;;;;;;;3.83;1.88;;;;;;;23.53;46.49;96470.69;4912611;29;20051;-77
2023/07/31 11:36:06;;;;;;;3.80;1.88;;;;;;;23.50;44.60;96479.19;4902300;29;20068;-78
2023/07/31 11:38:35;;;;;;;2.95;1.65;;;;;;;23.44;43.68;96487.19;4902028;29;20059;-78
2023/07/31 11:41:04;;;;;;;4.10;1.48;;;;;;;23.40;45.69;96480.78;4902881;29;20048;-78
2023/07/31 11:43:33;;;;;;;6.45;1.83;;;;;;;23.45;46.45;96470.13;4902768;29;20049;-80
2023/07/31 11:46:02;;;;;;;5.32;1.77;;;;;;;23.47;44.12;96471.75;4903226;29;20099;-79
2023/07/31 11:48:33;;;;;;;3.08;1.83;;;;;;;23.46;42.83;96465.59;4902776;29;20104;-78
2023/07/31 11:51:02;;;;;;;2.45;1.45;;;;;;;23.46;45.69;96462.94;4902929;29;20148;-79
2023/07/31 11:53:37;;;;;;;4.53;2.13;;;;;;;23.47;45.50;96471.75;4904456;29;20094;-79
2023/07/31 11:56:07;;;;;;;5.78;2.10;;;;;;;23.47;43.79;96461.09;4904292;29;20053;-79
2023/07/31 11:58:36;;;;;;;3.17;1.77;;;;;;;23.48;46.10;96450.16;4904345;29;20053;-80
2023/07/31 12:01:05;;;;;;;4.05;1.95;;;;;;;23.51;47.32;96448.84;4905805;29;20071;-80
2023/07/31 12:03:34;;;;;;;2.03;1.58;;;;;;;23.51;45.99;96448.84;4907001;29;20565;-81
2023/07/31 12:06:02;;;;;;;5.90;1.90;;;;;;;23.49;46.14;96445.66;4904663;29;20061;-83
2023/07/31 12:08:31;;;;;;;2.97;1.63;;;;;;;23.51;46.43;96446.19;4913394;29;20115;-80
2023/07/31 12:11:04;;;;;;;2.70;1.65;;;;;;;23.55;47.77;96447.22;4929750;29;20048;-80
2023/07/31 12:13:33;;;;;;;3.40;1.65;;;;;;;23.56;47.50;96448.84;4930345;29;20542;-82
2023/07/31 12:16:03;;;;;;;2.45;1.73;;;;;;;23.52;46.31;96447.78;4931047;29;20123;-82
2023/07/31 12:18:34;;;;;;;5.10;2.15;;;;;;;23.50;44.32;96445.38;4930262;29;20096;-79
2023/07/31 12:21:04;;;;;;;2.47;1.67;;;;;;;23.51;43.73;96433.66;4929789;29;20069;-79
2023/07/31 12:23:36;;;;;;;2.78;1.80;;;;;;;23.56;43.52;96417.69;4929609;29;20052;-80
2023/07/31 12:26:05;;;;;;;3.55;1.85;;;;;;;23.61;43.76;96430.19;4929040;29;20158;-81
2023/07/31 12:28:36;;;;;;;5.10;1.65;;;;;;;23.73;44.33;96411.25;4928454;29;20081;-80
2023/07/31 12:31:05;;;;;;;4.18;1.80;;;;;;;23.77;45.04;96410.47;4928981;29;20090;-78
2023/07/31 12:33:34;;;;;;;3.05;1.95;;;;;;;23.83;44.03;96412.06;4920031;29;20489;-79
2023/07/31 12:36:04;;;;;;;3.28;2.13;;;;;;;23.84;43.37;96408.31;4910895;29;20530;-79
2023/07/31 12:38:33;;;;;;;3.95;1.92;;;;;;;23.85;46.02;96393.13;4910706;29;20115;-79
2023/07/31 12:41:01;;;;;;;4.68;2.17;;;;;;;23.83;45.63;96404.06;4911097;29;20060;-80
2023/07/31 12:43:29;;;;;;;4.50;2.42;;;;;;;23.84;45.91;96394.22;4910974;29;20059;-81
2023/07/31 12:45:56;;;;;;;3.70;1.88;;;;;;;23.81;43.67;96390.22;4910895;29;20105;-79
2023/07/31 12:48:24;;;;;;;3.33;2.10;;;;;;;23.73;46.29;96384.63;4910393;29;20091;-78
2023/07/31 12:50:52;;;;;;;3.78;1.98;;;;;;;23.65;45.81;96377.97;4909022;29;20424;-77
2023/07/31 12:53:19;;;;;;;5.05;2.35;;;;;;;23.56;46.40;96361.75;4909115;29;20049;-83
2023/07/31 12:55:48;;;;;;;4.80;2.00;;;;;;;23.50;44.76;96364.72;4910771;29;20107;-79
2023/07/31 12:58:16;;;;;;;3.83;2.10;;;;;;;23.43;46.79;96359.66;4911594;29;20056;-80
2023/07/31 13:00:44;;;;;;;5.15;1.92;;;;;;;23.39;45.59;96359.41;4910656;29;20056;-79
2023/07/31 13:03:11;;;;;;;5.28;2.30;;;;;;;23.37;46.66;96356.22;4911387;29;20049;-79
2023/07/31 13:05:39;;;;;;;4.47;2.35;;;;;;;23.37;45.86;96358.88;4911033;29;20056;-79
2023/07/31 13:08:07;;;;;;;4.03;2.00;;;;;;;23.41;48.80;96351.16;4911429;29;20053;-79
2023/07/31 13:10:35;;;;;;;3.47;1.80;;;;;;;23.50;47.37;96354.06;4928000;29;20056;-78
2023/07/31 13:13:04;;;;;;;4.10;2.10;;;;;;;23.54;44.69;96347.13;4932371;29;20591;-82
2023/07/31 13:15:31;;;;;;;5.70;2.55;;;;;;;23.59;47.47;96333.78;4933703;29;20071;-80
2023/07/31 13:17:59;;;;;;;2.45;2.15;;;;;;;23.60;49.31;96340.72;4934096;29;20054;-82
2023/07/31 13:20:27;;;;;;;6.70;3.50;;;;;;;23.59;49.05;96344.44;4930146;29;20052;-79
2023/07/31 13:22:55;;;;;;;4.15;2.63;;;;;;;23.54;47.15;96344.47;4925150;29;20060;-80
2023/07/31 13:25:22;;;;;;;4.38;2.30;;;;;;;23.52;48.95;96339.41;4926824;29;20087;-81
2023/07/31 13:27:50;;;;;;;6.28;2.35;;;;;;;23.58;49.24;96335.66;4928269;29;20055;-78
2023/07/31 13:30:19;;;;;;;2.58;2.00;;;;;;;23.61;46.05;96327.16;4929154;29;20056;-78
2023/07/31 13:32:46;;;;;;;6.70;2.28;;;;;;;23.61;46.25;96324.50;4925090;29;20056;-78
2023/07/31 13:35:14;;;;;;;5.25;2.53;;;;;;;23.65;47.64;96325.53;4907502;29;20051;-80
2023/07/31 13:37:42;;;;;;;3.35;2.03;;;;;;;23.65;46.09;96324.72;4908181;29;20072;-79
2023/07/31 13:40:11;;;;;;;5.45;1.88;;;;;;;23.66;44.52;96321.00;4907478;29;20057;-80
2023/07/31 13:42:38;;;;;;;4.10;1.88;;;;;;;23.66;44.23;96323.69;4907365;29;20057;-79